sensor_id;sensor_type;location;lat;lon;timestamp;P1;durP1;ratioP1;P2;durP2;ratioP2
26223;SDS011;14820;48.682;8.890;2022-08-19T00:02:03;17.10;;;13.23;;
26223;SDS011;14820;48.682;8.890;2022-08-19T00:04:31;17.80;;;13.15;;
26223;SDS011;14820;48.682;8.890;2022-08-19T00:07:03;20.02;;;13.80;;
26223;SDS011;14820;48.682;8.890;2022-08-19T00:09:30;18.25;;;13.23;;
26223;SDS011;14820;48.682;8.890;2022-08-19T00:11:56;22.13;;;14.10;;
26223;SDS011;14820;48.682;8.890;2022-08-19T00:14:23;19.63;;;13.50;;
26223;SDS011;14820;48.682;8.890;2022-08-19T00:16:49;25.70;;;13.77;;
26223;SDS011;14820;48.682;8.890;2022-08-19T00:19:19;21.20;;;14.15;;
26223;SDS011;14820;48.682;8.890;2022-08-19T00:21:46;17.98;;;13.50;;
26223;SDS011;14820;48.682;8.890;2022-08-19T00:24:13;19.75;;;14.13;;
26223;SDS011;14820;48.682;8.890;2022-08-19T00:26:40;18.35;;;13.52;;
26223;SDS011;14820;48.682;8.890;2022-08-19T00:29:08;20.58;;;13.82;;
26223;SDS011;14820;48.682;8.890;2022-08-19T00:31:36;20.27;;;13.93;;
26223;SDS011;14820;48.682;8.890;2022-08-19T00:34:02;19.20;;;13.43;;
26223;SDS011;14820;48.682;8.890;2022-08-19T00:36:29;19.00;;;13.55;;
26223;SDS011;14820;48.682;8.890;2022-08-19T00:38:55;23.08;;;14.77;;
26223;SDS011;14820;48.682;8.890;2022-08-19T00:41:21;26.80;;;16.60;;
26223;SDS011;14820;48.682;8.890;2022-08-19T00:46:23;20.73;;;15.23;;
26223;SDS011;14820;48.682;8.890;2022-08-19T00:48:49;18.52;;;14.40;;
26223;SDS011;14820;48.682;8.890;2022-08-19T00:51:14;21.60;;;15.50;;
26223;SDS011;14820;48.682;8.890;2022-08-19T00:53:41;27.67;;;16.08;;
26223;SDS011;14820;48.682;8.890;2022-08-19T00:56:08;21.85;;;14.85;;
26223;SDS011;14820;48.682;8.890;2022-08-19T00:58:35;24.52;;;16.48;;
26223;SDS011;14820;48.682;8.890;2022-08-19T01:01:02;22.60;;;15.32;;
26223;SDS011;14820;48.682;8.890;2022-08-19T01:03:29;22.40;;;15.90;;
26223;SDS011;14820;48.682;8.890;2022-08-19T01:05:54;20.08;;;14.88;;
26223;SDS011;14820;48.682;8.890;2022-08-19T01:08:20;24.50;;;15.52;;
26223;SDS011;14820;48.682;8.890;2022-08-19T01:10:51;21.67;;;15.23;;
26223;SDS011;14820;48.682;8.890;2022-08-19T01:13:20;20.83;;;15.45;;
26223;SDS011;14820;48.682;8.890;2022-08-19T01:16:06;25.38;;;15.77;;
26223;SDS011;14820;48.682;8.890;2022-08-19T01:18:38;22.27;;;15.95;;
26223;SDS011;14820;48.682;8.890;2022-08-19T01:21:11;22.63;;;15.65;;
26223;SDS011;14820;48.682;8.890;2022-08-19T01:23:44;19.88;;;14.88;;
26223;SDS011;14820;48.682;8.890;2022-08-19T01:26:18;23.10;;;16.05;;
26223;SDS011;14820;48.682;8.890;2022-08-19T01:28:47;23.77;;;14.90;;
26223;SDS011;14820;48.682;8.890;2022-08-19T01:31:18;20.55;;;13.82;;
26223;SDS011;14820;48.682;8.890;2022-08-19T01:33:47;21.50;;;15.32;;
26223;SDS011;14820;48.682;8.890;2022-08-19T01:36:16;24.77;;;15.98;;
26223;SDS011;14820;48.682;8.890;2022-08-19T01:39:03;21.45;;;15.80;;
26223;SDS011;14820;48.682;8.890;2022-08-19T01:41:32;24.15;;;15.82;;
26223;SDS011;14820;48.682;8.890;2022-08-19T01:43:59;21.95;;;16.05;;
26223;SDS011;14820;48.682;8.890;2022-08-19T01:46:26;22.13;;;15.43;;
26223;SDS011;14820;48.682;8.890;2022-08-19T01:48:51;24.58;;;16.35;;
26223;SDS011;14820;48.682;8.890;2022-08-19T01:51:17;22.88;;;15.68;;
26223;SDS011;14820;48.682;8.890;2022-08-19T01:53:45;21.92;;;15.32;;
26223;SDS011;14820;48.682;8.890;2022-08-19T01:56:13;22.60;;;16.15;;
26223;SDS011;14820;48.682;8.890;2022-08-19T01:58:41;21.83;;;16.08;;
26223;SDS011;14820;48.682;8.890;2022-08-19T02:01:13;21.38;;;15.32;;
26223;SDS011;14820;48.682;8.890;2022-08-19T02:03:39;20.65;;;14.82;;
26223;SDS011;14820;48.682;8.890;2022-08-19T02:06:05;22.60;;;15.52;;
26223;SDS011;14820;48.682;8.890;2022-08-19T02:08:31;22.92;;;16.10;;
26223;SDS011;14820;48.682;8.890;2022-08-19T02:10:59;23.23;;;15.98;;
26223;SDS011;14820;48.682;8.890;2022-08-19T02:13:25;23.73;;;16.88;;
26223;SDS011;14820;48.682;8.890;2022-08-19T02:15:52;20.50;;;15.30;;
26223;SDS011;14820;48.682;8.890;2022-08-19T02:18:17;20.30;;;15.48;;
26223;SDS011;14820;48.682;8.890;2022-08-19T02:20:44;22.02;;;15.73;;
26223;SDS011;14820;48.682;8.890;2022-08-19T02:23:10;24.85;;;15.50;;
26223;SDS011;14820;48.682;8.890;2022-08-19T02:25:37;22.95;;;16.15;;
26223;SDS011;14820;48.682;8.890;2022-08-19T02:28:03;23.08;;;15.70;;
26223;SDS011;14820;48.682;8.890;2022-08-19T02:30:29;22.25;;;15.68;;
26223;SDS011;14820;48.682;8.890;2022-08-19T02:32:55;27.92;;;16.13;;
26223;SDS011;14820;48.682;8.890;2022-08-19T02:35:21;26.50;;;16.52;;
26223;SDS011;14820;48.682;8.890;2022-08-19T02:37:47;24.60;;;16.35;;
26223;SDS011;14820;48.682;8.890;2022-08-19T02:40:32;24.77;;;16.60;;
26223;SDS011;14820;48.682;8.890;2022-08-19T02:43:02;21.77;;;16.02;;
26223;SDS011;14820;48.682;8.890;2022-08-19T02:45:33;23.73;;;16.88;;
26223;SDS011;14820;48.682;8.890;2022-08-19T02:48:00;22.95;;;17.33;;
26223;SDS011;14820;48.682;8.890;2022-08-19T02:50:27;23.92;;;17.23;;
26223;SDS011;14820;48.682;8.890;2022-08-19T02:52:53;25.42;;;16.85;;
26223;SDS011;14820;48.682;8.890;2022-08-19T02:55:19;24.35;;;17.50;;
26223;SDS011;14820;48.682;8.890;2022-08-19T02:57:46;25.25;;;16.15;;
26223;SDS011;14820;48.682;8.890;2022-08-19T03:00:12;23.20;;;16.50;;
26223;SDS011;14820;48.682;8.890;2022-08-19T03:02:38;26.08;;;17.20;;
26223;SDS011;14820;48.682;8.890;2022-08-19T03:05:04;25.30;;;17.52;;
26223;SDS011;14820;48.682;8.890;2022-08-19T03:07:31;25.40;;;17.10;;
26223;SDS011;14820;48.682;8.890;2022-08-19T03:09:57;27.10;;;17.35;;
26223;SDS011;14820;48.682;8.890;2022-08-19T03:12:23;23.73;;;17.20;;
26223;SDS011;14820;48.682;8.890;2022-08-19T03:14:49;27.23;;;18.10;;
26223;SDS011;14820;48.682;8.890;2022-08-19T03:17:16;23.63;;;17.75;;
26223;SDS011;14820;48.682;8.890;2022-08-19T03:19:41;27.95;;;18.50;;
26223;SDS011;14820;48.682;8.890;2022-08-19T03:22:08;23.77;;;17.27;;
26223;SDS011;14820;48.682;8.890;2022-08-19T03:24:33;24.10;;;17.05;;
26223;SDS011;14820;48.682;8.890;2022-08-19T03:26:59;24.70;;;17.95;;
26223;SDS011;14820;48.682;8.890;2022-08-19T03:29:26;25.07;;;18.23;;
26223;SDS011;14820;48.682;8.890;2022-08-19T03:31:53;26.70;;;18.52;;
26223;SDS011;14820;48.682;8.890;2022-08-19T03:34:23;25.67;;;18.33;;
26223;SDS011;14820;48.682;8.890;2022-08-19T03:36:54;28.63;;;18.55;;
26223;SDS011;14820;48.682;8.890;2022-08-19T03:39:22;26.25;;;19.17;;
26223;SDS011;14820;48.682;8.890;2022-08-19T03:41:49;25.73;;;18.80;;
26223;SDS011;14820;48.682;8.890;2022-08-19T03:44:17;30.05;;;18.80;;
26223;SDS011;14820;48.682;8.890;2022-08-19T03:46:47;27.40;;;18.88;;
26223;SDS011;14820;48.682;8.890;2022-08-19T03:49:27;29.45;;;19.48;;
26223;SDS011;14820;48.682;8.890;2022-08-19T03:51:55;24.98;;;18.80;;
26223;SDS011;14820;48.682;8.890;2022-08-19T03:54:23;26.88;;;19.17;;
26223;SDS011;14820;48.682;8.890;2022-08-19T03:56:51;28.90;;;19.48;;
26223;SDS011;14820;48.682;8.890;2022-08-19T03:59:29;28.98;;;20.08;;
26223;SDS011;14820;48.682;8.890;2022-08-19T04:01:57;29.98;;;19.25;;
26223;SDS011;14820;48.682;8.890;2022-08-19T04:04:24;27.70;;;19.25;;
26223;SDS011;14820;48.682;8.890;2022-08-19T04:06:50;27.67;;;19.33;;
26223;SDS011;14820;48.682;8.890;2022-08-19T04:09:17;32.67;;;20.30;;
26223;SDS011;14820;48.682;8.890;2022-08-19T04:11:45;27.35;;;19.05;;
26223;SDS011;14820;48.682;8.890;2022-08-19T04:14:15;30.17;;;20.48;;
26223;SDS011;14820;48.682;8.890;2022-08-19T04:16:44;28.88;;;20.88;;
26223;SDS011;14820;48.682;8.890;2022-08-19T04:19:11;30.20;;;20.85;;
26223;SDS011;14820;48.682;8.890;2022-08-19T04:21:38;31.30;;;21.35;;
26223;SDS011;14820;48.682;8.890;2022-08-19T04:24:04;33.25;;;22.23;;
26223;SDS011;14820;48.682;8.890;2022-08-19T04:26:31;32.88;;;21.20;;
26223;SDS011;14820;48.682;8.890;2022-08-19T04:29:01;31.50;;;20.60;;
26223;SDS011;14820;48.682;8.890;2022-08-19T04:31:37;28.88;;;19.85;;
26223;SDS011;14820;48.682;8.890;2022-08-19T04:34:05;28.60;;;19.83;;
26223;SDS011;14820;48.682;8.890;2022-08-19T04:36:36;33.35;;;21.33;;
26223;SDS011;14820;48.682;8.890;2022-08-19T04:39:07;28.17;;;20.77;;
26223;SDS011;14820;48.682;8.890;2022-08-19T04:41:34;31.88;;;19.52;;
26223;SDS011;14820;48.682;8.890;2022-08-19T04:44:19;30.73;;;20.08;;
26223;SDS011;14820;48.682;8.890;2022-08-19T04:46:46;30.08;;;20.20;;
26223;SDS011;14820;48.682;8.890;2022-08-19T04:49:14;30.02;;;20.85;;
26223;SDS011;14820;48.682;8.890;2022-08-19T04:51:42;33.00;;;22.15;;
26223;SDS011;14820;48.682;8.890;2022-08-19T04:54:09;30.48;;;21.67;;
26223;SDS011;14820;48.682;8.890;2022-08-19T04:56:35;31.23;;;21.90;;
26223;SDS011;14820;48.682;8.890;2022-08-19T04:59:01;33.20;;;21.92;;
26223;SDS011;14820;48.682;8.890;2022-08-19T05:01:29;34.85;;;22.77;;
26223;SDS011;14820;48.682;8.890;2022-08-19T05:03:58;34.70;;;22.20;;
26223;SDS011;14820;48.682;8.890;2022-08-19T05:06:25;30.17;;;21.77;;
26223;SDS011;14820;48.682;8.890;2022-08-19T05:08:52;28.35;;;20.92;;
26223;SDS011;14820;48.682;8.890;2022-08-19T05:11:18;32.13;;;22.58;;
26223;SDS011;14820;48.682;8.890;2022-08-19T05:13:47;32.28;;;22.08;;
26223;SDS011;14820;48.682;8.890;2022-08-19T05:16:14;30.20;;;21.17;;
26223;SDS011;14820;48.682;8.890;2022-08-19T05:18:42;31.02;;;20.45;;
26223;SDS011;14820;48.682;8.890;2022-08-19T05:21:26;33.05;;;22.00;;
26223;SDS011;14820;48.682;8.890;2022-08-19T05:24:12;33.45;;;20.73;;
26223;SDS011;14820;48.682;8.890;2022-08-19T05:26:39;30.60;;;20.88;;
26223;SDS011;14820;48.682;8.890;2022-08-19T05:29:07;30.92;;;20.63;;
26223;SDS011;14820;48.682;8.890;2022-08-19T05:31:34;30.88;;;20.23;;
26223;SDS011;14820;48.682;8.890;2022-08-19T05:34:01;29.45;;;21.08;;
26223;SDS011;14820;48.682;8.890;2022-08-19T05:36:29;29.35;;;20.60;;
26223;SDS011;14820;48.682;8.890;2022-08-19T05:39:00;32.78;;;20.77;;
26223;SDS011;14820;48.682;8.890;2022-08-19T05:41:28;35.38;;;21.52;;
26223;SDS011;14820;48.682;8.890;2022-08-19T05:43:58;26.38;;;19.35;;
26223;SDS011;14820;48.682;8.890;2022-08-19T05:46:26;30.55;;;20.52;;
26223;SDS011;14820;48.682;8.890;2022-08-19T05:48:52;36.17;;;20.73;;
26223;SDS011;14820;48.682;8.890;2022-08-19T05:51:21;30.40;;;21.42;;
26223;SDS011;14820;48.682;8.890;2022-08-19T05:53:48;29.48;;;20.05;;
26223;SDS011;14820;48.682;8.890;2022-08-19T05:56:15;27.88;;;20.90;;
26223;SDS011;14820;48.682;8.890;2022-08-19T05:58:41;33.42;;;20.17;;
26223;SDS011;14820;48.682;8.890;2022-08-19T06:01:10;27.60;;;19.70;;
26223;SDS011;14820;48.682;8.890;2022-08-19T06:03:39;32.70;;;20.80;;
26223;SDS011;14820;48.682;8.890;2022-08-19T06:06:06;29.10;;;20.40;;
26223;SDS011;14820;48.682;8.890;2022-08-19T06:08:33;30.70;;;20.40;;
26223;SDS011;14820;48.682;8.890;2022-08-19T06:11:11;29.25;;;20.48;;
26223;SDS011;14820;48.682;8.890;2022-08-19T06:13:47;32.90;;;20.98;;
26223;SDS011;14820;48.682;8.890;2022-08-19T06:16:15;32.30;;;21.75;;
26223;SDS011;14820;48.682;8.890;2022-08-19T06:18:47;32.53;;;21.00;;
26223;SDS011;14820;48.682;8.890;2022-08-19T06:21:23;29.83;;;20.08;;
26223;SDS011;14820;48.682;8.890;2022-08-19T06:23:52;28.92;;;20.05;;
26223;SDS011;14820;48.682;8.890;2022-08-19T06:26:19;35.75;;;21.48;;
26223;SDS011;14820;48.682;8.890;2022-08-19T06:28:46;31.23;;;20.95;;
26223;SDS011;14820;48.682;8.890;2022-08-19T06:31:16;31.98;;;20.40;;
26223;SDS011;14820;48.682;8.890;2022-08-19T06:33:43;27.45;;;19.55;;
26223;SDS011;14820;48.682;8.890;2022-08-19T06:36:23;28.67;;;20.70;;
26223;SDS011;14820;48.682;8.890;2022-08-19T06:38:56;32.55;;;21.75;;
26223;SDS011;14820;48.682;8.890;2022-08-19T06:41:29;30.35;;;19.92;;
26223;SDS011;14820;48.682;8.890;2022-08-19T06:43:55;32.22;;;20.80;;
26223;SDS011;14820;48.682;8.890;2022-08-19T06:46:22;34.30;;;18.90;;
26223;SDS011;14820;48.682;8.890;2022-08-19T06:48:49;28.83;;;20.13;;
26223;SDS011;14820;48.682;8.890;2022-08-19T06:51:15;27.65;;;20.58;;
26223;SDS011;14820;48.682;8.890;2022-08-19T06:53:44;27.05;;;19.27;;
26223;SDS011;14820;48.682;8.890;2022-08-19T06:56:13;28.33;;;19.27;;
26223;SDS011;14820;48.682;8.890;2022-08-19T06:58:43;26.60;;;18.98;;
26223;SDS011;14820;48.682;8.890;2022-08-19T07:01:09;23.80;;;17.42;;
26223;SDS011;14820;48.682;8.890;2022-08-19T07:03:36;27.65;;;18.27;;
26223;SDS011;14820;48.682;8.890;2022-08-19T07:06:04;25.77;;;19.08;;
26223;SDS011;14820;48.682;8.890;2022-08-19T07:08:36;21.65;;;16.75;;
26223;SDS011;14820;48.682;8.890;2022-08-19T07:11:06;23.42;;;16.45;;
26223;SDS011;14820;48.682;8.890;2022-08-19T07:13:34;25.88;;;17.88;;
26223;SDS011;14820;48.682;8.890;2022-08-19T07:16:07;23.88;;;17.83;;
26223;SDS011;14820;48.682;8.890;2022-08-19T07:18:38;24.13;;;17.17;;
26223;SDS011;14820;48.682;8.890;2022-08-19T07:21:04;27.38;;;17.85;;
26223;SDS011;14820;48.682;8.890;2022-08-19T07:23:35;24.45;;;15.50;;
26223;SDS011;14820;48.682;8.890;2022-08-19T07:26:06;21.85;;;15.20;;
26223;SDS011;14820;48.682;8.890;2022-08-19T07:28:55;22.00;;;17.33;;
26223;SDS011;14820;48.682;8.890;2022-08-19T07:31:23;21.92;;;16.60;;
26223;SDS011;14820;48.682;8.890;2022-08-19T07:33:51;23.00;;;16.08;;
26223;SDS011;14820;48.682;8.890;2022-08-19T07:36:21;20.02;;;15.98;;
26223;SDS011;14820;48.682;8.890;2022-08-19T07:38:50;22.42;;;16.52;;
26223;SDS011;14820;48.682;8.890;2022-08-19T07:41:17;24.50;;;17.23;;
26223;SDS011;14820;48.682;8.890;2022-08-19T07:43:46;19.15;;;15.07;;
26223;SDS011;14820;48.682;8.890;2022-08-19T07:46:14;20.38;;;13.45;;
26223;SDS011;14820;48.682;8.890;2022-08-19T07:48:41;21.17;;;16.13;;
26223;SDS011;14820;48.682;8.890;2022-08-19T07:51:08;22.33;;;16.00;;
26223;SDS011;14820;48.682;8.890;2022-08-19T07:53:36;27.77;;;17.65;;
26223;SDS011;14820;48.682;8.890;2022-08-19T07:56:03;24.40;;;16.90;;
26223;SDS011;14820;48.682;8.890;2022-08-19T07:58:31;24.05;;;16.52;;
26223;SDS011;14820;48.682;8.890;2022-08-19T08:00:58;25.13;;;15.85;;
26223;SDS011;14820;48.682;8.890;2022-08-19T08:03:24;23.23;;;16.40;;
26223;SDS011;14820;48.682;8.890;2022-08-19T08:06:10;19.60;;;15.32;;
26223;SDS011;14820;48.682;8.890;2022-08-19T08:09:06;22.15;;;15.07;;
26223;SDS011;14820;48.682;8.890;2022-08-19T08:11:53;23.35;;;16.83;;
26223;SDS011;14820;48.682;8.890;2022-08-19T08:14:27;25.80;;;15.90;;
26223;SDS011;14820;48.682;8.890;2022-08-19T08:16:55;19.60;;;14.60;;
26223;SDS011;14820;48.682;8.890;2022-08-19T08:19:22;24.13;;;15.43;;
26223;SDS011;14820;48.682;8.890;2022-08-19T08:21:49;19.23;;;14.65;;
26223;SDS011;14820;48.682;8.890;2022-08-19T08:24:16;19.88;;;13.55;;
26223;SDS011;14820;48.682;8.890;2022-08-19T08:26:42;18.70;;;14.32;;
26223;SDS011;14820;48.682;8.890;2022-08-19T08:29:12;20.85;;;14.32;;
26223;SDS011;14820;48.682;8.890;2022-08-19T08:31:39;19.00;;;14.68;;
26223;SDS011;14820;48.682;8.890;2022-08-19T08:34:06;21.10;;;14.38;;
26223;SDS011;14820;48.682;8.890;2022-08-19T08:36:32;17.10;;;14.13;;
26223;SDS011;14820;48.682;8.890;2022-08-19T08:39:06;18.73;;;13.65;;
26223;SDS011;14820;48.682;8.890;2022-08-19T08:41:39;19.00;;;14.10;;
26223;SDS011;14820;48.682;8.890;2022-08-19T08:47:25;16.75;;;13.70;;
26223;SDS011;14820;48.682;8.890;2022-08-19T08:50:08;18.25;;;13.00;;
26223;SDS011;14820;48.682;8.890;2022-08-19T08:52:47;18.20;;;14.05;;
26223;SDS011;14820;48.682;8.890;2022-08-19T08:55:18;18.60;;;13.68;;
26223;SDS011;14820;48.682;8.890;2022-08-19T09:00:15;18.33;;;13.02;;
26223;SDS011;14820;48.682;8.890;2022-08-19T09:02:53;19.75;;;14.15;;
26223;SDS011;14820;48.682;8.890;2022-08-19T09:05:20;19.42;;;13.95;;
26223;SDS011;14820;48.682;8.890;2022-08-19T09:07:53;16.95;;;14.13;;
26223;SDS011;14820;48.682;8.890;2022-08-19T09:16:00;23.63;;;14.60;;
26223;SDS011;14820;48.682;8.890;2022-08-19T09:21:07;20.75;;;14.60;;
26223;SDS011;14820;48.682;8.890;2022-08-19T09:23:34;21.40;;;14.60;;
26223;SDS011;14820;48.682;8.890;2022-08-19T09:26:01;18.30;;;14.15;;
26223;SDS011;14820;48.682;8.890;2022-08-19T09:28:31;21.15;;;15.25;;
26223;SDS011;14820;48.682;8.890;2022-08-19T09:30:57;19.27;;;14.52;;
26223;SDS011;14820;48.682;8.890;2022-08-19T09:33:22;24.73;;;14.27;;
26223;SDS011;14820;48.682;8.890;2022-08-19T09:35:48;21.13;;;15.10;;
26223;SDS011;14820;48.682;8.890;2022-08-19T09:38:14;19.15;;;13.88;;
26223;SDS011;14820;48.682;8.890;2022-08-19T09:40:39;17.60;;;12.90;;
26223;SDS011;14820;48.682;8.890;2022-08-19T09:43:05;18.50;;;12.55;;
26223;SDS011;14820;48.682;8.890;2022-08-19T09:45:32;20.42;;;14.20;;
26223;SDS011;14820;48.682;8.890;2022-08-19T09:47:58;19.83;;;14.85;;
26223;SDS011;14820;48.682;8.890;2022-08-19T09:50:23;20.15;;;14.63;;
26223;SDS011;14820;48.682;8.890;2022-08-19T09:52:49;22.13;;;13.85;;
26223;SDS011;14820;48.682;8.890;2022-08-19T09:55:17;19.73;;;14.25;;
26223;SDS011;14820;48.682;8.890;2022-08-19T09:57:43;15.60;;;12.48;;
26223;SDS011;14820;48.682;8.890;2022-08-19T10:00:08;17.55;;;13.35;;
26223;SDS011;14820;48.682;8.890;2022-08-19T10:02:35;17.42;;;13.65;;
26223;SDS011;14820;48.682;8.890;2022-08-19T10:05:01;18.83;;;13.80;;
26223;SDS011;14820;48.682;8.890;2022-08-19T10:07:45;19.08;;;13.80;;
26223;SDS011;14820;48.682;8.890;2022-08-19T10:10:12;18.08;;;13.70;;
26223;SDS011;14820;48.682;8.890;2022-08-19T10:12:37;18.92;;;13.23;;
26223;SDS011;14820;48.682;8.890;2022-08-19T10:15:04;18.52;;;12.35;;
26223;SDS011;14820;48.682;8.890;2022-08-19T10:17:31;18.00;;;12.95;;
26223;SDS011;14820;48.682;8.890;2022-08-19T10:19:58;19.65;;;13.10;;
26223;SDS011;14820;48.682;8.890;2022-08-19T10:22:24;18.48;;;12.23;;
26223;SDS011;14820;48.682;8.890;2022-08-19T10:24:50;17.42;;;11.82;;
26223;SDS011;14820;48.682;8.890;2022-08-19T10:27:17;12.75;;;10.23;;
26223;SDS011;14820;48.682;8.890;2022-08-19T10:29:43;19.17;;;12.75;;
26223;SDS011;14820;48.682;8.890;2022-08-19T10:32:08;12.48;;;10.50;;
26223;SDS011;14820;48.682;8.890;2022-08-19T10:34:36;14.20;;;10.13;;
26223;SDS011;14820;48.682;8.890;2022-08-19T10:37:03;18.40;;;11.85;;
26223;SDS011;14820;48.682;8.890;2022-08-19T10:39:34;12.30;;;10.85;;
26223;SDS011;14820;48.682;8.890;2022-08-19T10:42:06;13.02;;;10.00;;
26223;SDS011;14820;48.682;8.890;2022-08-19T10:44:35;13.80;;;10.10;;
26223;SDS011;14820;48.682;8.890;2022-08-19T10:47:02;10.48;;;9.35;;
26223;SDS011;14820;48.682;8.890;2022-08-19T10:49:28;13.60;;;10.07;;
26223;SDS011;14820;48.682;8.890;2022-08-19T10:51:54;15.88;;;10.77;;
26223;SDS011;14820;48.682;8.890;2022-08-19T10:54:39;12.43;;;9.45;;
26223;SDS011;14820;48.682;8.890;2022-08-19T10:57:23;12.63;;;9.57;;
26223;SDS011;14820;48.682;8.890;2022-08-19T10:59:54;12.30;;;9.52;;
26223;SDS011;14820;48.682;8.890;2022-08-19T11:02:20;10.82;;;8.93;;
26223;SDS011;14820;48.682;8.890;2022-08-19T11:04:47;13.15;;;9.32;;
26223;SDS011;14820;48.682;8.890;2022-08-19T11:07:14;13.88;;;9.30;;
26223;SDS011;14820;48.682;8.890;2022-08-19T11:09:41;15.50;;;9.02;;
26223;SDS011;14820;48.682;8.890;2022-08-19T11:12:07;12.63;;;8.38;;
26223;SDS011;14820;48.682;8.890;2022-08-19T11:14:34;9.73;;;8.07;;
26223;SDS011;14820;48.682;8.890;2022-08-19T11:17:00;9.57;;;7.45;;
26223;SDS011;14820;48.682;8.890;2022-08-19T11:19:27;9.85;;;7.43;;
26223;SDS011;14820;48.682;8.890;2022-08-19T11:21:52;11.93;;;7.85;;
26223;SDS011;14820;48.682;8.890;2022-08-19T11:24:23;13.95;;;8.20;;
26223;SDS011;14820;48.682;8.890;2022-08-19T11:26:50;10.60;;;8.00;;
26223;SDS011;14820;48.682;8.890;2022-08-19T11:29:18;9.88;;;7.78;;
26223;SDS011;14820;48.682;8.890;2022-08-19T11:31:46;9.35;;;7.30;;
26223;SDS011;14820;48.682;8.890;2022-08-19T11:34:17;11.73;;;7.40;;
26223;SDS011;14820;48.682;8.890;2022-08-19T11:36:46;10.77;;;7.35;;
26223;SDS011;14820;48.682;8.890;2022-08-19T11:39:21;11.05;;;7.80;;
26223;SDS011;14820;48.682;8.890;2022-08-19T11:41:47;9.35;;;7.13;;
26223;SDS011;14820;48.682;8.890;2022-08-19T11:44:13;7.35;;;6.45;;
26223;SDS011;14820;48.682;8.890;2022-08-19T11:46:40;9.75;;;7.15;;
26223;SDS011;14820;48.682;8.890;2022-08-19T11:49:10;10.05;;;8.13;;
26223;SDS011;14820;48.682;8.890;2022-08-19T11:51:36;13.15;;;7.60;;
26223;SDS011;14820;48.682;8.890;2022-08-19T11:54:03;8.00;;;7.15;;
26223;SDS011;14820;48.682;8.890;2022-08-19T11:56:30;8.65;;;6.70;;
26223;SDS011;14820;48.682;8.890;2022-08-19T11:58:56;7.85;;;6.28;;
26223;SDS011;14820;48.682;8.890;2022-08-19T12:01:23;7.43;;;6.63;;
26223;SDS011;14820;48.682;8.890;2022-08-19T12:03:51;10.20;;;6.25;;
26223;SDS011;14820;48.682;8.890;2022-08-19T12:06:19;10.15;;;6.47;;
26223;SDS011;14820;48.682;8.890;2022-08-19T12:08:50;7.90;;;7.07;;
26223;SDS011;14820;48.682;8.890;2022-08-19T12:11:17;7.93;;;6.28;;
26223;SDS011;14820;48.682;8.890;2022-08-19T12:13:43;7.65;;;6.05;;
26223;SDS011;14820;48.682;8.890;2022-08-19T12:16:11;7.65;;;6.50;;
26223;SDS011;14820;48.682;8.890;2022-08-19T12:18:48;5.90;;;5.10;;
26223;SDS011;14820;48.682;8.890;2022-08-19T12:21:17;7.00;;;5.65;;
26223;SDS011;14820;48.682;8.890;2022-08-19T12:23:46;7.63;;;5.47;;
26223;SDS011;14820;48.682;8.890;2022-08-19T12:26:13;6.38;;;5.32;;
26223;SDS011;14820;48.682;8.890;2022-08-19T12:28:39;8.70;;;5.13;;
26223;SDS011;14820;48.682;8.890;2022-08-19T12:31:06;6.25;;;5.63;;
26223;SDS011;14820;48.682;8.890;2022-08-19T12:33:32;7.22;;;5.15;;
26223;SDS011;14820;48.682;8.890;2022-08-19T12:36:03;10.48;;;5.45;;
26223;SDS011;14820;48.682;8.890;2022-08-19T12:38:31;6.75;;;5.97;;
26223;SDS011;14820;48.682;8.890;2022-08-19T12:40:57;6.15;;;5.40;;
26223;SDS011;14820;48.682;8.890;2022-08-19T12:43:23;7.03;;;4.97;;
26223;SDS011;14820;48.682;8.890;2022-08-19T12:45:49;6.95;;;5.55;;
26223;SDS011;14820;48.682;8.890;2022-08-19T12:48:15;9.32;;;5.68;;
26223;SDS011;14820;48.682;8.890;2022-08-19T12:50:41;7.65;;;5.32;;
26223;SDS011;14820;48.682;8.890;2022-08-19T12:53:09;7.68;;;5.20;;
26223;SDS011;14820;48.682;8.890;2022-08-19T12:55:35;8.85;;;5.10;;
26223;SDS011;14820;48.682;8.890;2022-08-19T12:58:01;7.50;;;5.15;;
26223;SDS011;14820;48.682;8.890;2022-08-19T13:00:27;6.03;;;5.18;;
26223;SDS011;14820;48.682;8.890;2022-08-19T13:02:54;4.88;;;4.47;;
26223;SDS011;14820;48.682;8.890;2022-08-19T13:05:21;6.07;;;4.70;;
26223;SDS011;14820;48.682;8.890;2022-08-19T13:07:49;5.88;;;5.28;;
26223;SDS011;14820;48.682;8.890;2022-08-19T13:10:18;9.95;;;5.38;;
26223;SDS011;14820;48.682;8.890;2022-08-19T13:12:46;7.13;;;5.18;;
26223;SDS011;14820;48.682;8.890;2022-08-19T13:15:14;10.07;;;5.03;;
26223;SDS011;14820;48.682;8.890;2022-08-19T13:17:45;6.28;;;5.60;;
26223;SDS011;14820;48.682;8.890;2022-08-19T13:20:14;10.52;;;6.57;;
26223;SDS011;14820;48.682;8.890;2022-08-19T13:22:41;7.63;;;6.88;;
26223;SDS011;14820;48.682;8.890;2022-08-19T13:25:07;7.18;;;6.53;;
26223;SDS011;14820;48.682;8.890;2022-08-19T13:27:34;7.55;;;6.05;;
26223;SDS011;14820;48.682;8.890;2022-08-19T13:30:00;7.43;;;6.38;;
26223;SDS011;14820;48.682;8.890;2022-08-19T13:32:45;9.52;;;6.78;;
26223;SDS011;14820;48.682;8.890;2022-08-19T13:35:30;7.53;;;6.63;;
26223;SDS011;14820;48.682;8.890;2022-08-19T13:37:55;7.22;;;6.53;;
26223;SDS011;14820;48.682;8.890;2022-08-19T13:40:22;9.85;;;7.20;;
26223;SDS011;14820;48.682;8.890;2022-08-19T13:42:52;8.85;;;6.50;;
26223;SDS011;14820;48.682;8.890;2022-08-19T13:45:22;8.45;;;6.75;;
26223;SDS011;14820;48.682;8.890;2022-08-19T13:47:50;7.75;;;6.63;;
26223;SDS011;14820;48.682;8.890;2022-08-19T13:50:18;8.32;;;6.50;;
26223;SDS011;14820;48.682;8.890;2022-08-19T13:52:46;8.20;;;6.18;;
26223;SDS011;14820;48.682;8.890;2022-08-19T13:55:13;8.43;;;6.88;;
26223;SDS011;14820;48.682;8.890;2022-08-19T13:57:40;7.60;;;6.68;;
26223;SDS011;14820;48.682;8.890;2022-08-19T14:00:11;7.28;;;6.43;;
26223;SDS011;14820;48.682;8.890;2022-08-19T14:02:39;8.43;;;6.18;;
26223;SDS011;14820;48.682;8.890;2022-08-19T14:05:06;7.45;;;6.75;;
26223;SDS011;14820;48.682;8.890;2022-08-19T14:07:34;13.15;;;6.90;;
26223;SDS011;14820;48.682;8.890;2022-08-19T14:10:00;7.15;;;6.45;;
26223;SDS011;14820;48.682;8.890;2022-08-19T14:12:26;7.90;;;6.80;;
26223;SDS011;14820;48.682;8.890;2022-08-19T14:14:52;7.05;;;6.35;;
26223;SDS011;14820;48.682;8.890;2022-08-19T14:17:18;7.45;;;6.35;;
26223;SDS011;14820;48.682;8.890;2022-08-19T14:19:44;6.88;;;6.18;;
26223;SDS011;14820;48.682;8.890;2022-08-19T14:22:09;7.18;;;6.18;;
26223;SDS011;14820;48.682;8.890;2022-08-19T14:24:36;7.20;;;6.30;;
26223;SDS011;14820;48.682;8.890;2022-08-19T14:27:04;6.95;;;6.25;;
26223;SDS011;14820;48.682;8.890;2022-08-19T14:29:31;8.02;;;6.43;;
26223;SDS011;14820;48.682;8.890;2022-08-19T14:31:58;8.43;;;6.20;;
26223;SDS011;14820;48.682;8.890;2022-08-19T14:34:24;7.57;;;5.80;;
26223;SDS011;14820;48.682;8.890;2022-08-19T14:36:51;7.80;;;6.43;;
26223;SDS011;14820;48.682;8.890;2022-08-19T14:39:17;10.63;;;6.25;;
26223;SDS011;14820;48.682;8.890;2022-08-19T14:41:43;6.80;;;5.90;;
26223;SDS011;14820;48.682;8.890;2022-08-19T14:44:10;6.57;;;5.88;;
26223;SDS011;14820;48.682;8.890;2022-08-19T14:46:37;6.25;;;5.70;;
26223;SDS011;14820;48.682;8.890;2022-08-19T14:49:04;6.47;;;5.88;;
26223;SDS011;14820;48.682;8.890;2022-08-19T14:51:30;6.22;;;5.60;;
26223;SDS011;14820;48.682;8.890;2022-08-19T14:53:56;7.53;;;5.97;;